createdAt,value
2018-12-05T00:00:11.896Z,1.6
2018-12-05T00:01:01.673Z,1.6
2018-12-05T00:01:52.014Z,1.6
2018-12-05T00:02:41.793Z,1.6
2018-12-05T00:03:32.108Z,1.6
2018-12-05T00:04:21.907Z,1.6
2018-12-05T00:05:12.246Z,1.6
2018-12-05T00:06:01.748Z,1.6
2018-12-05T00:06:52.355Z,1.6
2018-12-05T00:25:04.362Z,1.6
2018-12-05T00:25:54.434Z,1.6
2018-12-05T00:26:44.476Z,1.6
2018-12-05T00:27:34.536Z,1.6
2018-12-05T00:28:24.295Z,1.6
2018-12-05T00:29:13.828Z,1.6
2018-12-05T00:30:04.733Z,1.6
2018-12-05T00:30:54.498Z,1.6
2018-12-05T00:31:44.549Z,1.6
2018-12-05T00:32:34.933Z,1.6
2018-12-05T00:33:25.006Z,1.6
2018-12-05T00:34:14.727Z,1.6
2018-12-05T00:35:04.768Z,1.6
2018-12-05T00:35:54.826Z,1.5
2018-12-05T00:36:44.588Z,1.5
2018-12-05T00:37:34.940Z,1.5
2018-12-05T00:38:25.318Z,1.5
2018-12-05T00:39:15.323Z,1.5
2018-12-05T00:40:05.690Z,1.5
2018-12-05T00:40:55.170Z,1.5
2018-12-05T00:41:45.501Z,1.5
2018-12-05T00:42:35.290Z,1.6
2018-12-05T00:43:25.679Z,1.6
2018-12-05T00:44:15.394Z,1.5
2018-12-05T00:45:05.732Z,1.6
2018-12-05T00:45:55.785Z,1.6
2018-12-05T00:46:45.835Z,1.6
2018-12-05T00:47:35.054Z,1.6
2018-12-05T00:48:25.947Z,1.6
2018-12-05T00:49:15.174Z,1.6
2018-12-05T00:50:05.795Z,1.6
2018-12-05T00:50:56.092Z,1.6
2018-12-05T00:51:45.639Z,1.5
2018-12-05T00:52:35.695Z,1.5
2018-12-05T00:53:26.296Z,1.5
2018-12-05T00:54:16.075Z,1.5
2018-12-05T00:55:06.410Z,1.5
2018-12-05T00:55:56.462Z,1.5
2018-12-05T00:56:46.522Z,1.5
2018-12-05T00:57:36.314Z,1.5
2018-12-05T00:58:26.639Z,1.6
2018-12-05T00:59:16.708Z,1.6
2018-12-05T01:00:06.762Z,1.6
2018-12-05T01:00:56.544Z,1.5
2018-12-05T01:01:46.864Z,1.6
2018-12-05T01:02:36.928Z,1.6
2018-12-05T01:03:26.446Z,1.6
2018-12-05T01:04:16.816Z,1.6
2018-12-05T01:05:08.814Z,1.6
2018-12-05T01:05:56.589Z,1.6
2018-12-05T01:06:47.221Z,1.6
2018-12-05T01:07:36.713Z,1.6
2018-12-05T01:08:27.330Z,1.7
2018-12-05T01:09:16.839Z,1.7
2018-12-05T01:10:06.381Z,1.6
2018-12-05T01:10:57.573Z,1.7
2018-12-05T01:11:47.620Z,1.7
2018-12-05T01:12:37.071Z,1.7
2018-12-05T01:13:27.375Z,1.7
2018-12-05T01:14:17.725Z,1.7
2018-12-05T01:15:07.875Z,1.7
2018-12-05T01:15:57.530Z,1.8
2018-12-05T01:16:47.347Z,1.8
2018-12-05T01:17:37.178Z,1.7
2018-12-05T01:18:27.747Z,1.7
2018-12-05T01:19:18.573Z,1.7
2018-12-05T01:20:07.572Z,1.7
2018-12-05T01:20:58.154Z,1.7
2018-12-05T01:21:47.965Z,1.7
2018-12-05T01:22:38.287Z,1.7
2018-12-05T01:23:28.370Z,1.7
2018-12-05T01:24:18.142Z,1.7
2018-12-05T01:25:08.195Z,1.7
2018-12-05T01:25:58.250Z,1.7
2018-12-05T01:26:48.019Z,1.7
2018-12-05T01:27:38.650Z,1.7
2018-12-05T01:28:28.147Z,1.7
2018-12-05T01:29:18.472Z,1.7
2018-12-05T01:30:08.777Z,1.6
2018-12-05T01:30:58.844Z,1.6
2018-12-05T01:31:48.369Z,1.7
2018-12-05T01:32:38.982Z,1.6
2018-12-05T01:33:28.774Z,1.6
2018-12-05T01:34:19.100Z,1.6
2018-12-05T01:35:09.409Z,1.6
2018-12-05T01:35:58.944Z,1.7
2018-12-05T01:36:49.064Z,1.7
2018-12-05T01:37:38.759Z,1.8
2018-12-05T01:38:28.841Z,1.8
2018-12-05T01:39:19.170Z,1.8
2018-12-05T01:40:09.496Z,1.7
2018-12-05T01:40:59.562Z,1.6
2018-12-05T01:41:49.604Z,1.6
2018-12-05T01:42:39.122Z,1.6
2018-12-05T01:43:29.208Z,1.7
2018-12-05T01:44:19.239Z,1.7
2018-12-05T01:45:09.831Z,1.6
2018-12-05T01:45:59.611Z,1.6
2018-12-05T01:46:49.951Z,1.6
2018-12-05T01:47:39.466Z,1.6
2018-12-05T01:48:29.804Z,1.6
2018-12-05T01:49:20.133Z,1.6
2018-12-05T01:50:10.181Z,1.6
2018-12-05T01:51:00.226Z,1.6
2018-12-05T01:51:49.257Z,1.6
2018-12-05T01:52:40.599Z,1.6
2018-12-05T01:53:30.414Z,1.6
2018-12-05T01:54:20.501Z,1.6
2018-12-05T01:55:09.963Z,1.6
2018-12-05T01:56:00.558Z,1.6
2018-12-05T01:56:50.601Z,1.7
2018-12-05T01:57:40.765Z,1.7
2018-12-05T01:58:29.999Z,1.7
2018-12-05T01:59:20.538Z,1.8
2018-12-05T02:00:10.865Z,1.8
2018-12-05T02:01:00.439Z,1.7
2018-12-05T02:01:50.947Z,1.7
2018-12-05T02:02:40.754Z,1.7
2018-12-05T02:03:31.098Z,1.7
2018-12-05T02:04:20.595Z,1.8
2018-12-05T02:05:10.650Z,1.8
2018-12-05T02:06:00.716Z,1.8
2018-12-05T02:06:51.327Z,1.8
2018-12-05T02:07:41.376Z,1.8
2018-12-05T02:08:30.887Z,1.7
2018-12-05T02:09:21.495Z,1.8
2018-12-05T02:10:11.275Z,1.8
2018-12-05T02:11:01.855Z,1.8
2018-12-05T02:11:51.390Z,1.8
2018-12-05T02:12:41.210Z,1.8
2018-12-05T02:13:31.500Z,1.8
2018-12-05T02:14:21.646Z,1.8
2018-12-05T02:15:11.899Z,1.8
2018-12-05T02:16:01.458Z,1.8
2018-12-05T02:16:52.012Z,1.8
2018-12-05T02:17:41.257Z,1.8
2018-12-05T02:18:31.845Z,1.8
2018-12-05T02:19:22.187Z,1.8
2018-12-05T02:20:12.034Z,1.8
2018-12-05T02:21:02.613Z,1.9
2018-12-05T02:21:52.364Z,1.8
2018-12-05T02:22:42.105Z,1.8
2018-12-05T02:23:32.186Z,1.8
2018-12-05T02:24:22.284Z,1.8
2018-12-05T02:25:12.569Z,1.8
2018-12-05T02:26:02.405Z,1.8
2018-12-05T02:26:52.692Z,1.8
2018-12-05T02:27:42.615Z,1.8
2018-12-05T02:28:32.814Z,1.8
2018-12-05T02:29:22.581Z,1.7
2018-12-05T02:30:12.959Z,1.7
2018-12-05T02:31:03.019Z,1.8
2018-12-05T02:31:53.031Z,1.8
2018-12-05T02:32:43.129Z,1.8
2018-12-05T02:33:33.161Z,1.8
2018-12-05T02:34:22.945Z,1.8
2018-12-05T02:35:12.723Z,1.8
2018-12-05T02:36:03.363Z,1.8
2018-12-05T02:36:53.459Z,1.8
2018-12-05T02:37:43.189Z,1.8
2018-12-05T02:38:33.241Z,1.8
2018-12-05T02:39:23.293Z,1.8
2018-12-05T02:40:13.607Z,1.8
2018-12-05T02:41:03.400Z,1.8
2018-12-05T02:41:53.536Z,1.8
2018-12-05T02:42:42.723Z,1.8
2018-12-05T02:43:33.307Z,1.8
2018-12-05T02:44:23.957Z,1.8
2018-12-05T02:45:13.735Z,1.8
2018-12-05T02:46:04.033Z,1.8
2018-12-05T02:46:53.487Z,1.9
2018-12-05T02:47:43.970Z,1.8
2018-12-05T02:48:33.895Z,1.9
2018-12-05T02:49:23.435Z,1.8
2018-12-05T02:50:14.027Z,1.9
2018-12-05T02:51:04.102Z,1.9
2018-12-05T02:51:54.143Z,1.9
2018-12-05T02:52:44.197Z,1.9
2018-12-05T02:53:34.331Z,1.9
2018-12-05T02:54:24.354Z,1.9
2018-12-05T02:55:14.956Z,1.9
2018-12-05T02:56:04.692Z,1.9
2018-12-05T02:56:54.269Z,1.9
2018-12-05T02:57:44.590Z,1.9
2018-12-05T02:58:35.860Z,1.9
2018-12-05T02:59:24.428Z,1.9
2018-12-05T03:00:15.080Z,1.9
2018-12-05T03:01:05.151Z,1.9
2018-12-05T03:01:54.551Z,1.9
2018-12-05T03:02:45.167Z,1.9
2018-12-05T03:03:34.659Z,1.9
2018-12-05T03:04:25.004Z,1.9
2018-12-05T03:05:15.091Z,1.9
2018-12-05T03:06:05.435Z,1.9
2018-12-05T03:06:55.458Z,1.9
2018-12-05T03:07:45.217Z,1.9
2018-12-05T03:08:35.302Z,1.9
2018-12-05T03:09:25.911Z,1.9
2018-12-05T03:10:15.134Z,1.9
2018-12-05T03:11:05.456Z,2
2018-12-05T03:11:55.506Z,2
2018-12-05T03:12:45.576Z,2
2018-12-05T03:13:35.360Z,2
2018-12-05T03:14:25.691Z,1.9
2018-12-05T03:15:15.738Z,2
2018-12-05T03:16:05.823Z,2
2018-12-05T03:16:55.846Z,2
2018-12-05T03:17:46.180Z,2
2018-12-05T03:18:35.975Z,2
2018-12-05T03:19:26.048Z,2.1
2018-12-05T03:20:15.815Z,2.1
2018-12-05T03:21:06.448Z,2.1
2018-12-05T03:21:56.491Z,2
2018-12-05T03:22:46.548Z,2.1
2018-12-05T03:23:36.339Z,2.1
2018-12-05T03:24:26.658Z,2.1
2018-12-05T03:25:16.422Z,2.1
2018-12-05T03:26:06.490Z,2.1
2018-12-05T03:26:56.528Z,2.1
2018-12-05T03:27:46.862Z,2.1
2018-12-05T03:28:36.936Z,2.1
2018-12-05T03:29:26.977Z,2.1
2018-12-05T03:30:17.121Z,2.2
2018-12-05T03:31:06.603Z,2.1
2018-12-05T03:31:56.978Z,2.1
2018-12-05T03:32:47.280Z,2.2
2018-12-05T03:33:37.100Z,2.1
2018-12-05T03:34:27.339Z,2.1
2018-12-05T03:35:18.597Z,2.1
2018-12-05T03:36:07.165Z,2.1
2018-12-05T03:36:56.946Z,2
2018-12-05T03:37:47.284Z,2
2018-12-05T03:38:37.702Z,2
2018-12-05T03:39:27.694Z,2
2018-12-05T03:40:17.480Z,2
2018-12-05T03:41:07.232Z,2
2018-12-05T03:41:57.639Z,2
2018-12-05T03:42:47.612Z,2
2018-12-05T03:43:37.967Z,2
2018-12-05T03:44:27.738Z,2
2018-12-05T03:45:17.806Z,2
2018-12-05T03:46:07.589Z,2
2018-12-05T03:46:57.891Z,2
2018-12-05T03:47:48.271Z,2
2018-12-05T03:48:38.036Z,2
2018-12-05T03:49:28.355Z,1.9
2018-12-05T03:50:17.653Z,1.9
2018-12-05T03:51:08.528Z,1.9
2018-12-05T03:51:57.978Z,1.9
2018-12-05T03:52:48.593Z,1.9
2018-12-05T03:53:38.674Z,2
2018-12-05T03:54:28.776Z,2
2018-12-05T03:55:20.158Z,2
2018-12-05T03:56:08.593Z,2.1
2018-12-05T03:56:58.950Z,2.1
2018-12-05T03:57:48.954Z,2.1
2018-12-05T03:58:38.503Z,2.1
2018-12-05T03:59:28.503Z,2.1
2018-12-05T04:00:19.128Z,2.1
2018-12-05T04:01:08.863Z,2.1
2018-12-05T04:01:59.317Z,2.1
2018-12-05T04:02:49.269Z,2.1
2018-12-05T04:03:39.050Z,2.1
2018-12-05T04:04:29.378Z,2.1
2018-12-05T04:05:19.444Z,2.1
2018-12-05T04:06:09.246Z,2.1
2018-12-05T04:07:00.771Z,2
2018-12-05T04:07:49.330Z,2
2018-12-05T04:08:39.695Z,2.1
2018-12-05T04:09:29.457Z,2.1
2018-12-05T04:10:19.520Z,2.1
2018-12-05T04:11:09.305Z,2.1
2018-12-05T04:11:59.628Z,2.1
2018-12-05T04:12:49.673Z,2.1
2018-12-05T04:13:39.720Z,2.1
2018-12-05T04:14:30.218Z,2.1
2018-12-05T04:15:19.880Z,2.1
2018-12-05T04:16:09.897Z,2.1
2018-12-05T04:16:59.982Z,2.1
2018-12-05T04:17:50.156Z,2.1
2018-12-05T04:18:40.422Z,2.2
2018-12-05T04:19:30.137Z,2.1
2018-12-05T04:20:20.204Z,2.2
2018-12-05T04:21:10.521Z,2.1
2018-12-05T04:22:00.579Z,2.2
2018-12-05T04:22:50.366Z,2.2
2018-12-05T04:23:40.737Z,2.2
2018-12-05T04:24:30.827Z,2.2
2018-12-05T04:25:20.534Z,2.1
2018-12-05T04:26:10.591Z,2.2
2018-12-05T04:27:00.689Z,2.2
2018-12-05T04:27:50.989Z,2.3
2018-12-05T04:28:40.498Z,2.3
2018-12-05T04:29:30.819Z,2.2
2018-12-05T04:30:21.132Z,2.2
2018-12-05T04:31:11.201Z,2.2
2018-12-05T04:32:00.995Z,2.2
2018-12-05T04:32:51.349Z,2.2
2018-12-05T04:33:40.829Z,2.2
2018-12-05T04:34:31.172Z,2.2
2018-12-05T04:35:21.226Z,2.2
2018-12-05T04:36:11.838Z,2.1
2018-12-05T04:37:01.618Z,2.2
2018-12-05T04:54:16.230Z,2.3
2018-12-05T04:55:04.762Z,2.3
2018-12-05T04:55:54.812Z,2.3
2018-12-05T04:56:44.915Z,2.3
2018-12-05T04:57:34.927Z,2.2
2018-12-05T04:58:25.311Z,2.2
2018-12-05T04:59:16.633Z,2.2
2018-12-05T05:00:05.131Z,2.2
2018-12-05T05:00:54.870Z,2.1
2018-12-05T05:01:45.213Z,2.2
2018-12-05T05:02:34.992Z,2.3
2018-12-05T05:03:25.585Z,2.3
2018-12-05T05:05:05.680Z,2.2
2018-12-05T05:05:55.894Z,2.2
2018-12-05T05:06:45.373Z,2.2
2018-12-05T05:07:35.624Z,2.2
2018-12-05T05:08:25.670Z,2.2
2018-12-05T05:09:15.999Z,2.2
2018-12-05T05:10:05.246Z,2.3
2018-12-05T05:10:56.115Z,2.3
2018-12-05T05:11:45.904Z,2.3
2018-12-05T05:12:36.212Z,2.3
2018-12-05T05:13:26.297Z,2.2
2018-12-05T05:14:15.790Z,2.3
2018-12-05T05:15:06.119Z,2.3
2018-12-05T05:15:55.891Z,2.2
2018-12-05T05:16:46.229Z,2.2
2018-12-05T05:17:36.296Z,2.2
2018-12-05T05:18:26.344Z,2.2
2018-12-05T05:19:16.843Z,2.2
2018-12-05T05:20:06.697Z,2.2
2018-12-05T05:20:56.244Z,2.2
2018-12-05T05:21:46.291Z,2.2
2018-12-05T05:22:36.648Z,2.3
2018-12-05T05:23:26.969Z,2.4
2018-12-05T05:24:16.466Z,2.6
2018-12-05T05:25:07.078Z,2.6
2018-12-05T05:25:56.891Z,2.9
2018-12-05T05:26:46.906Z,3.4
2018-12-05T05:27:37.321Z,3.6
2018-12-05T05:28:26.745Z,3.8
2018-12-05T05:29:17.359Z,3.9
2018-12-05T05:30:07.147Z,4
2018-12-05T05:30:56.908Z,4.2
2018-12-05T05:31:47.520Z,4.3
2018-12-05T05:32:36.494Z,4.4
2018-12-05T05:33:27.655Z,4.4
2018-12-05T05:34:17.695Z,4.4
2018-12-05T05:35:07.483Z,4.4
2018-12-05T05:35:57.262Z,4.5
2018-12-05T05:36:47.875Z,4.5
2018-12-05T05:37:37.664Z,4.5
2018-12-05T05:38:27.483Z,4.5
2018-12-05T05:39:18.037Z,4.6
2018-12-05T05:40:08.129Z,4.8
2018-12-05T05:40:58.145Z,4.8
2018-12-05T05:41:47.922Z,4.7
2018-12-05T05:42:37.702Z,4.8
2018-12-05T05:43:27.770Z,4.7
2018-12-05T05:44:18.118Z,4.8
2018-12-05T05:45:08.154Z,4.7
2018-12-05T05:45:58.481Z,4.6
2018-12-05T05:46:48.597Z,4.6
2018-12-05T05:47:38.602Z,4.6
2018-12-05T05:48:28.644Z,4.6
2018-12-05T05:49:18.707Z,4.6
2018-12-05T05:50:08.489Z,4.6
2018-12-05T05:50:58.557Z,4.6
2018-12-05T05:51:48.321Z,4.7
2018-12-05T05:52:38.394Z,4.7
2018-12-05T05:53:28.444Z,4.8
2018-12-05T05:54:19.061Z,4.7
2018-12-05T05:55:09.121Z,4.7
2018-12-05T05:55:59.169Z,4.8
2018-12-05T05:56:48.980Z,4.7
2018-12-05T05:57:39.009Z,4.7
2018-12-05T05:58:29.057Z,4.7
2018-12-05T05:59:19.109Z,4.7
2018-12-05T06:00:09.460Z,4.7
2018-12-05T06:00:58.952Z,4.8
2018-12-05T06:01:49.564Z,4.8
2018-12-05T06:02:39.629Z,4.7
2018-12-05T06:03:29.450Z,4.8
2018-12-05T06:04:19.736Z,4.8
2018-12-05T06:05:09.511Z,4.8
2018-12-05T06:05:59.536Z,4.8
2018-12-05T06:06:49.891Z,4.8
2018-12-05T06:07:39.411Z,4.8
2018-12-05T06:08:29.462Z,4.8
2018-12-05T06:09:20.072Z,4.8
2018-12-05T06:10:09.852Z,4.8
2018-12-05T06:10:59.644Z,4.8
2018-12-05T06:11:50.236Z,4.8
2018-12-05T06:12:40.309Z,4.8
2018-12-05T06:13:29.796Z,4.8
2018-12-05T06:14:20.406Z,4.9
2018-12-05T06:15:10.464Z,4.9
2018-12-05T06:16:00.813Z,4.9
2018-12-05T06:16:50.303Z,4.9
2018-12-05T06:17:40.086Z,5
2018-12-05T06:18:30.431Z,5
2018-12-05T06:19:20.811Z,4.9
2018-12-05T06:20:10.523Z,4.9
2018-12-05T06:21:00.638Z,4.9
2018-12-05T06:21:50.635Z,4.9
2018-12-05T06:22:40.692Z,4.9
2018-12-05T06:23:30.808Z,4.9
2018-12-05T06:24:20.880Z,4.9
2018-12-05T06:25:11.180Z,4.9
2018-12-05T06:26:00.968Z,4.9
2018-12-05T06:26:50.980Z,5
2018-12-05T06:27:40.773Z,5
2018-12-05T06:28:31.415Z,5
2018-12-05T06:29:21.422Z,5
2018-12-05T06:30:10.930Z,5
2018-12-05T06:31:01.252Z,5
2018-12-05T06:31:51.578Z,5.1
2018-12-05T06:32:41.367Z,5
2018-12-05T06:33:33.640Z,4.9
2018-12-05T06:34:21.770Z,4.9
2018-12-05T06:35:11.824Z,5
2018-12-05T06:36:01.609Z,5
2018-12-05T06:36:51.655Z,5
2018-12-05T06:37:42.239Z,5
2018-12-05T06:38:32.044Z,5.1
2018-12-05T06:39:22.105Z,5
2018-12-05T06:40:11.604Z,5
2018-12-05T06:41:01.952Z,4.9
2018-12-05T06:41:52.061Z,4.9
2018-12-05T06:42:42.326Z,4.9
2018-12-05T06:43:32.384Z,4.9
2018-12-05T06:44:22.441Z,4.9
2018-12-05T06:45:12.579Z,4.9
2018-12-05T06:46:01.721Z,4.9
2018-12-05T06:46:52.331Z,5
2018-12-05T06:47:42.654Z,4.9
2018-12-05T06:48:32.748Z,4.9
2018-12-05T06:49:22.241Z,4.9
2018-12-05T06:50:12.846Z,4.9
2018-12-05T06:51:02.924Z,4.9
2018-12-05T06:51:52.137Z,4.9
2018-12-05T06:52:42.461Z,4.9
2018-12-05T06:53:33.070Z,4.9
2018-12-05T06:54:22.856Z,4.9
2018-12-05T06:55:12.982Z,4.9
2018-12-05T06:56:03.253Z,4.9
2018-12-05T06:56:53.021Z,5
2018-12-05T06:57:43.078Z,4.9
2018-12-05T06:58:33.420Z,4.9
2018-12-05T06:59:23.473Z,4.9
2018-12-05T07:00:13.268Z,4.9
2018-12-05T07:01:03.044Z,4.9
2018-12-05T07:01:53.688Z,4.9
2018-12-05T07:02:43.698Z,4.9
2018-12-05T07:03:33.463Z,4.9
2018-12-05T07:04:23.811Z,4.9
2018-12-05T07:05:13.590Z,4.9
2018-12-05T07:06:03.650Z,4.9
2018-12-05T07:06:53.708Z,4.9
2018-12-05T07:07:43.777Z,4.9
2018-12-05T07:08:34.123Z,4.9
2018-12-05T07:09:24.153Z,4.9
2018-12-05T07:10:13.940Z,4.9
2018-12-05T07:11:04.272Z,4.9
2018-12-05T07:11:53.754Z,4.9
2018-12-05T07:12:44.112Z,4.9
2018-12-05T07:13:34.435Z,4.9
2018-12-05T07:14:24.545Z,5
2018-12-05T07:15:14.006Z,4.9
2018-12-05T07:16:04.614Z,4.9
2018-12-05T07:16:54.392Z,4.9
2018-12-05T07:17:44.230Z,4.9
2018-12-05T07:18:35.869Z,4.9
2018-12-05T07:19:25.386Z,4.9
2018-12-05T07:20:14.671Z,4.9
2018-12-05T07:21:04.679Z,4.9
2018-12-05T07:21:54.451Z,5
2018-12-05T07:22:44.791Z,5
2018-12-05T07:23:35.116Z,4.9
2018-12-05T07:24:25.206Z,4.9
2018-12-05T07:25:14.691Z,4.9
2018-12-05T07:26:05.104Z,4.9
2018-12-05T07:26:55.082Z,4.9
2018-12-05T07:27:45.128Z,4.9
2018-12-05T07:28:35.504Z,4.9
2018-12-05T07:29:25.493Z,4.9
2018-12-05T07:30:14.760Z,4.9
2018-12-05T07:31:05.101Z,4.9
2018-12-05T07:31:55.433Z,4.9
2018-12-05T07:32:45.876Z,4.9
2018-12-05T07:33:35.808Z,4.9
2018-12-05T07:34:25.333Z,4.9
2018-12-05T07:35:15.638Z,4.9
2018-12-05T07:36:05.430Z,4.9
2018-12-05T07:36:55.495Z,4.9
2018-12-05T07:37:45.270Z,4.9
2018-12-05T07:38:35.868Z,4.9
2018-12-05T07:39:25.668Z,4.9
2018-12-05T07:40:16.275Z,4.9
2018-12-05T07:41:06.049Z,4.9
2018-12-05T07:41:56.381Z,4.9
2018-12-05T07:42:46.238Z,4.9
2018-12-05T07:43:36.494Z,4.9
2018-12-05T07:44:26.555Z,4.9
2018-12-05T07:45:16.607Z,5
2018-12-05T07:46:06.670Z,5
2018-12-05T07:46:56.728Z,5
2018-12-05T07:47:46.850Z,5.1
2018-12-05T07:48:36.832Z,5.2
2018-12-05T07:49:26.963Z,5.2
2018-12-05T07:50:18.740Z,5.3
2018-12-05T07:51:06.737Z,5.3
2018-12-05T07:51:57.059Z,5.4
2018-12-05T07:52:46.850Z,5.4
2018-12-05T07:53:36.685Z,5.4
2018-12-05T07:54:26.962Z,5.4
2018-12-05T07:55:17.014Z,5.5
2018-12-05T07:56:07.359Z,5.6
2018-12-05T07:56:56.852Z,5.6
2018-12-05T07:57:47.192Z,5.6
2018-12-05T07:58:37.510Z,5.5
2018-12-05T07:59:27.576Z,5.6
2018-12-05T08:00:17.619Z,5.7
2018-12-05T08:01:06.874Z,5.6
2018-12-05T08:01:57.754Z,5.7
2018-12-05T08:02:47.536Z,5.7
2018-12-05T08:03:37.839Z,5.6
2018-12-05T08:04:27.656Z,5.6
2018-12-05T08:05:17.986Z,5.7
2018-12-05T08:06:08.117Z,5.8
2018-12-05T08:06:58.113Z,5.8
2018-12-05T08:07:48.153Z,5.8
2018-12-05T08:08:38.296Z,5.7
2018-12-05T08:09:28.286Z,5.8
2018-12-05T08:10:18.475Z,5.9
2018-12-05T08:11:08.068Z,5.9
2018-12-05T08:11:58.450Z,6
2018-12-05T08:12:48.496Z,5.9
2018-12-05T08:13:38.558Z,5.9
2018-12-05T08:14:28.347Z,6
2018-12-05T08:15:18.400Z,6.1
2018-12-05T08:16:08.986Z,6
2018-12-05T08:16:57.962Z,6
2018-12-05T08:17:48.860Z,6
2018-12-05T08:18:38.359Z,6.1
2018-12-05T08:19:28.985Z,5.9
2018-12-05T08:20:18.752Z,5.9
2018-12-05T08:21:08.869Z,5.9
2018-12-05T08:21:58.597Z,5.9
2018-12-05T08:22:48.922Z,5.9
2018-12-05T08:23:38.972Z,6
2018-12-05T08:24:29.569Z,5.9
2018-12-05T08:25:19.367Z,5.9
2018-12-05T08:26:09.206Z,5.9
2018-12-05T08:26:59.480Z,5.9
2018-12-05T08:27:49.352Z,5.8
2018-12-05T08:28:39.597Z,5.8
2018-12-05T08:29:29.651Z,5.7
2018-12-05T08:30:19.714Z,5.6
2018-12-05T08:31:09.839Z,5.5
2018-12-05T08:31:59.841Z,5.4
2018-12-05T08:32:49.899Z,5.4
2018-12-05T08:33:39.671Z,5.3
2018-12-05T08:34:30.002Z,5.3
2018-12-05T08:35:20.058Z,5.3
2018-12-05T08:36:09.846Z,5.3
2018-12-05T08:37:00.188Z,5.3
2018-12-05T08:37:49.675Z,5.3
2018-12-05T08:38:40.026Z,5.2
2018-12-05T08:39:30.329Z,5.1
2018-12-05T08:40:20.121Z,5.1
2018-12-05T08:41:10.480Z,5.1
2018-12-05T08:42:00.526Z,5.1
2018-12-05T08:42:50.578Z,5.1
2018-12-05T08:43:40.650Z,5
2018-12-05T08:44:30.691Z,5.1
2018-12-05T08:45:20.470Z,5.2
2018-12-05T08:46:10.833Z,5.3
2018-12-05T08:47:00.309Z,5.4
2018-12-05T08:47:50.927Z,5.5
2018-12-05T08:48:40.995Z,5.6
2018-12-05T08:49:30.518Z,5.7
2018-12-05T08:50:20.840Z,5.8
2018-12-05T08:51:11.165Z,5.8
2018-12-05T08:52:00.660Z,5.7
2018-12-05T08:52:51.284Z,5.8
2018-12-05T09:08:38.722Z,6.6
2018-12-05T09:09:29.134Z,6.5
2018-12-05T09:10:18.871Z,6.6
2018-12-05T09:11:08.934Z,6.5
2018-12-05T09:11:58.691Z,6.4
2018-12-05T09:12:49.029Z,6.4
2018-12-05T09:13:39.201Z,6.5
2018-12-05T09:14:31.924Z,6.6
2018-12-05T09:15:19.484Z,6.5
2018-12-05T09:16:09.551Z,6.4
2018-12-05T09:16:59.326Z,6.3
2018-12-05T09:17:49.903Z,6.2
2018-12-05T09:18:39.438Z,6.2
2018-12-05T09:19:29.498Z,6.3
2018-12-05T09:20:19.542Z,6.1
2018-12-05T09:21:09.323Z,6.1
2018-12-05T09:21:59.668Z,6.1
2018-12-05T09:22:50.258Z,6.1
2018-12-05T09:23:39.778Z,6.1
2018-12-05T09:24:29.843Z,6
2018-12-05T09:25:19.625Z,6
2018-12-05T09:26:10.223Z,5.9
2018-12-05T09:26:59.729Z,5.9
2018-12-05T09:27:50.355Z,5.9
2018-12-05T09:28:40.117Z,5.9
2018-12-05T09:29:29.982Z,5.9
2018-12-05T09:30:19.686Z,5.8
2018-12-05T09:31:10.100Z,5.8
2018-12-05T09:32:00.354Z,5.8
2018-12-05T09:32:50.763Z,5.8
2018-12-05T09:33:40.475Z,5.8
2018-12-05T09:34:30.808Z,5.8
2018-12-05T09:35:21.199Z,5.8
2018-12-05T09:36:10.922Z,5.8
2018-12-05T09:37:01.065Z,5.8
2018-12-05T09:37:51.037Z,5.7
2018-12-05T09:38:41.082Z,5.7
2018-12-05T09:39:31.134Z,5.7
2018-12-05T09:40:20.924Z,5.7
2018-12-05T09:41:10.701Z,5.7
2018-12-05T09:42:00.779Z,5.6
2018-12-05T09:42:51.369Z,5.7
2018-12-05T09:43:41.443Z,5.6
2018-12-05T09:44:31.539Z,5.6
2018-12-05T09:45:21.287Z,5.6
2018-12-05T09:46:11.634Z,5.7
2018-12-05T09:47:01.396Z,5.7
2018-12-05T09:47:50.864Z,5.7
2018-12-05T09:48:41.512Z,5.7
2018-12-05T09:49:31.864Z,5.6
2018-12-05T09:50:21.944Z,5.6
2018-12-05T09:51:11.950Z,5.6
2018-12-05T09:52:02.010Z,5.6
2018-12-05T09:52:52.359Z,5.6
2018-12-05T09:53:41.681Z,5.6
2018-12-05T09:54:32.229Z,5.6
2018-12-05T09:55:21.964Z,5.6
2018-12-05T09:56:12.016Z,5.6
2018-12-05T09:57:02.361Z,5.7
2018-12-05T09:57:52.406Z,5.6
2018-12-05T09:58:41.718Z,5.6
2018-12-05T09:59:32.498Z,5.6
2018-12-05T10:00:22.115Z,5.6
2018-12-05T10:01:12.103Z,5.6
2018-12-05T10:02:02.703Z,5.6
2018-12-05T10:02:52.508Z,5.6
2018-12-05T10:03:41.979Z,5.6
2018-12-05T10:04:32.601Z,5.6
2018-12-05T10:05:22.945Z,5.6
2018-12-05T10:06:12.438Z,5.6
2018-12-05T10:07:02.502Z,5.5
2018-12-05T10:07:53.105Z,5.6
2018-12-05T10:08:42.885Z,5.5
2018-12-05T10:09:32.945Z,5.5
2018-12-05T10:10:22.730Z,5.4
2018-12-05T10:11:13.080Z,5.4
2018-12-05T10:12:03.135Z,5.4
2018-12-05T10:12:53.274Z,5.4
2018-12-05T10:13:43.805Z,5.4
2018-12-05T10:14:33.012Z,5.4
2018-12-05T10:15:23.075Z,5.4
2018-12-05T10:16:13.687Z,5.3
2018-12-05T10:17:03.185Z,5.3
2018-12-05T10:17:53.539Z,5.3
2018-12-05T10:18:43.574Z,5.3
2018-12-05T10:19:33.639Z,5.3
2018-12-05T10:20:23.144Z,5.3
2018-12-05T10:21:14.064Z,5.3
2018-12-05T10:22:03.599Z,5.3
2018-12-05T10:22:54.224Z,5.3
2018-12-05T10:23:43.922Z,5.2
2018-12-05T10:24:34.269Z,5.2
2018-12-05T10:25:23.744Z,5.3
2018-12-05T10:26:13.342Z,5.2
2018-12-05T10:27:04.141Z,5.2
2018-12-05T10:27:54.206Z,5.2
2018-12-05T10:28:44.796Z,5.2
2018-12-05T10:29:34.590Z,5.2
2018-12-05T10:30:24.351Z,5.2
2018-12-05T10:31:14.709Z,5.2
2018-12-05T10:32:06.133Z,5.2
2018-12-05T10:32:54.551Z,5.2
2018-12-05T10:33:44.603Z,5.3
2018-12-05T10:34:34.935Z,5.3
2018-12-05T10:35:24.988Z,5.2
2018-12-05T10:36:14.778Z,5.1
2018-12-05T10:37:04.565Z,5.2
2018-12-05T10:37:56.660Z,5.1
2018-12-05T10:38:44.940Z,5.1
2018-12-05T10:39:35.055Z,5.1
2018-12-05T10:40:25.053Z,5.1
2018-12-05T10:41:14.910Z,5.1
2018-12-05T10:42:05.195Z,5.1
2018-12-05T10:42:54.740Z,5.1
2018-12-05T10:43:45.556Z,5.1
2018-12-05T10:44:35.687Z,5.1
2018-12-05T10:45:25.737Z,5.1
2018-12-05T10:46:15.734Z,5.1
2018-12-05T10:47:05.522Z,5.1
2018-12-05T10:47:55.288Z,5.1
2018-12-05T10:48:45.636Z,5.1
2018-12-05T10:49:35.706Z,5.1
2018-12-05T10:50:26.024Z,5.1
2018-12-05T10:51:16.086Z,5.1
2018-12-05T10:52:06.144Z,5.1
2018-12-05T10:52:56.204Z,5.1
2018-12-05T10:53:45.969Z,5.1
2018-12-05T10:54:36.436Z,5.1
2018-12-05T10:55:26.091Z,5.1
2018-12-05T10:56:15.891Z,5.1
2018-12-05T10:57:06.196Z,5.2
2018-12-05T10:57:56.636Z,5.3
2018-12-05T10:58:46.333Z,5.3
2018-12-05T10:59:36.423Z,5.2
2018-12-05T11:00:26.448Z,5.2
2018-12-05T11:01:16.493Z,5.1
2018-12-05T11:02:06.818Z,5.2
2018-12-05T11:02:56.888Z,5.2
2018-12-05T11:03:46.945Z,5.3
2018-12-05T11:04:36.728Z,5.3
2018-12-05T11:05:26.773Z,5.3
2018-12-05T11:06:17.117Z,5.3
2018-12-05T11:07:06.906Z,5.3
2018-12-05T11:07:57.221Z,5.2
2018-12-05T11:08:47.285Z,5.3
2018-12-05T11:09:37.055Z,5.3
2018-12-05T11:10:27.112Z,5.4
2018-12-05T11:11:16.900Z,5.4
2018-12-05T11:12:07.247Z,5.4
2018-12-05T11:12:57.563Z,5.4
2018-12-05T11:13:47.637Z,5.4
2018-12-05T11:14:37.682Z,5.3
2018-12-05T11:15:27.739Z,5.3
2018-12-05T11:16:17.795Z,5.3
2018-12-05T11:17:07.854Z,5.3
2018-12-05T11:17:57.947Z,5.3
2018-12-05T11:18:47.972Z,5.3
2018-12-05T11:19:37.795Z,5.3
2018-12-05T11:20:28.167Z,5.3
2018-12-05T11:21:18.131Z,5.3
2018-12-05T11:22:08.258Z,5.3
2018-12-05T11:22:58.259Z,5.3
2018-12-05T11:23:49.991Z,5.3
2018-12-05T11:24:38.084Z,5.3
2018-12-05T11:25:27.879Z,5.2
2018-12-05T11:26:18.206Z,5.3
2018-12-05T11:27:08.841Z,5.3
2018-12-05T11:27:58.851Z,5.3
2018-12-05T11:28:48.377Z,5.3
2018-12-05T11:29:38.234Z,5.4
2018-12-05T11:30:28.294Z,5.4
2018-12-05T11:31:18.061Z,5.4
2018-12-05T11:32:08.628Z,5.3
2018-12-05T11:32:58.624Z,5.3
2018-12-05T11:33:49.008Z,5.3
2018-12-05T11:34:38.219Z,5.3
2018-12-05T11:35:28.826Z,5.3
2018-12-05T11:36:18.988Z,5.3
2018-12-05T11:37:09.242Z,5.3
2018-12-05T11:37:59.009Z,5.3
2018-12-05T11:38:49.349Z,5.3
2018-12-05T11:39:39.131Z,5.3
2018-12-05T11:40:29.174Z,5.3
2018-12-05T11:41:19.217Z,5.3
2018-12-05T11:42:09.392Z,5.3
2018-12-05T11:42:59.400Z,5.2
2018-12-05T11:43:49.679Z,5.1
2018-12-05T11:44:39.739Z,5.1
2018-12-05T11:45:29.514Z,5.1
2018-12-05T11:46:19.577Z,5.1
2018-12-05T11:47:09.440Z,5.1
2018-12-05T11:48:00.216Z,5.1
2018-12-05T11:48:49.746Z,5.1
2018-12-05T11:49:39.826Z,5
2018-12-05T11:50:29.914Z,5.1
2018-12-05T11:51:19.726Z,5.1
2018-12-05T11:52:09.987Z,5.1
2018-12-05T11:53:00.303Z,5.1
2018-12-05T11:53:50.609Z,5.1
2018-12-05T11:54:40.441Z,5.1
2018-12-05T11:55:30.626Z,5.1
2018-12-05T11:56:20.546Z,5.1
2018-12-05T11:57:10.318Z,5.1
2018-12-05T11:58:00.914Z,5.2
2018-12-05T11:58:50.953Z,5.1
2018-12-05T11:59:40.499Z,5.1
2018-12-05T12:00:31.076Z,5.1
2018-12-05T12:01:20.889Z,5.1
2018-12-05T12:02:10.959Z,5.1
2018-12-05T12:03:00.685Z,5
2018-12-05T12:03:50.588Z,4.9
2018-12-05T12:04:40.838Z,4.9
2018-12-05T12:05:31.221Z,4.9
2018-12-05T12:06:21.230Z,4.9
2018-12-05T12:07:11.283Z,4.9
2018-12-05T12:08:01.341Z,4.8
2018-12-05T12:08:51.783Z,4.8
2018-12-05T12:09:41.450Z,4.8
2018-12-05T12:10:30.735Z,4.8
2018-12-05T12:11:22.901Z,4.8
2018-12-05T12:12:11.400Z,4.8
2018-12-05T12:13:01.478Z,4.8
2018-12-05T12:13:51.738Z,4.8
2018-12-05T12:14:41.790Z,4.8
2018-12-05T12:15:31.875Z,4.8
2018-12-05T12:16:21.934Z,4.8
2018-12-05T12:17:11.980Z,4.8
2018-12-05T12:18:01.766Z,4.8
2018-12-05T12:18:51.823Z,4.7
2018-12-05T12:19:42.156Z,4.7
2018-12-05T12:20:31.920Z,4.7
2018-12-05T12:21:22.287Z,4.7
2018-12-05T12:22:12.058Z,4.7